Topsail Beach, North Carolina
Current Conditions -  °F | °C
As of 11:56 PM on Sunday 21 Dec 2014 (Local Time) from KNCA Reporting Station
Light Rain Light Rain  
Wind Chill: 37°   Ceiling: 700
Heat Index: 43°   Visibility: 5mi
Dew Point: 41°   Wind: 12mph
Humidity: 93%   Direction: 40°NE
Pressure: 30.17"   Gusts: NA
Location:  34.4895°N, 77.514°W
Report Text: KNCA 220456Z AUTO 04010KT 5SM -RA BR OVC007 06/05 A3017 RMK AO2 SLP219 P0002 T00610050 401000017
Loading
Personal Weather Stations






























Interactive Weather Map New forecast layout! Learn more

10-Day Weather Forecast

Advertisements
Track Severe Weather on mobile